sensor_id;sensor_type;location;lat;lon;timestamp;pressure;altitude;pressure_sealevel;temperature;humidity
39593;BME280;25286;48.870;9.084;2022-10-16T00:00:56;97877.03;;;15.09;100.00
39593;BME280;25286;48.870;9.084;2022-10-16T00:03:22;97866.53;;;15.01;100.00
39593;BME280;25286;48.870;9.084;2022-10-16T00:05:48;97870.41;;;15.05;100.00
39593;BME280;25286;48.870;9.084;2022-10-16T00:08:14;97861.84;;;15.07;100.00
39593;BME280;25286;48.870;9.084;2022-10-16T00:10:40;97858.53;;;15.10;100.00
39593;BME280;25286;48.870;9.084;2022-10-16T00:13:05;97861.56;;;15.13;100.00
39593;BME280;25286;48.870;9.084;2022-10-16T00:15:37;97864.59;;;15.12;100.00
39593;BME280;25286;48.870;9.084;2022-10-16T00:18:04;97864.03;;;15.15;100.00
39593;BME280;25286;48.870;9.084;2022-10-16T00:20:30;97859.06;;;15.02;100.00
39593;BME280;25286;48.870;9.084;2022-10-16T00:22:58;97858.78;;;14.98;100.00
39593;BME280;25286;48.870;9.084;2022-10-16T00:25:24;97858.00;;;15.08;100.00
39593;BME280;25286;48.870;9.084;2022-10-16T00:27:50;97863.22;;;15.04;100.00
39593;BME280;25286;48.870;9.084;2022-10-16T00:30:15;97864.34;;;15.03;100.00
39593;BME280;25286;48.870;9.084;2022-10-16T00:32:41;97855.47;;;15.06;100.00
39593;BME280;25286;48.870;9.084;2022-10-16T00:35:07;97861.59;;;15.03;100.00
39593;BME280;25286;48.870;9.084;2022-10-16T00:37:32;97864.59;;;15.02;100.00
39593;BME280;25286;48.870;9.084;2022-10-16T00:39:58;97869.03;;;14.97;100.00
39593;BME280;25286;48.870;9.084;2022-10-16T00:42:24;97872.34;;;14.94;100.00
39593;BME280;25286;48.870;9.084;2022-10-16T00:44:52;97877.31;;;14.92;100.00
39593;BME280;25286;48.870;9.084;2022-10-16T00:47:30;97877.59;;;14.91;100.00
39593;BME280;25286;48.870;9.084;2022-10-16T00:50:13;97865.72;;;14.90;100.00
39593;BME280;25286;48.870;9.084;2022-10-16T00:52:44;97869.84;;;14.88;100.00
39593;BME280;25286;48.870;9.084;2022-10-16T00:55:11;97878.44;;;14.91;100.00
39593;BME280;25286;48.870;9.084;2022-10-16T00:57:37;97859.66;;;14.98;100.00
39593;BME280;25286;48.870;9.084;2022-10-16T01:00:06;97867.66;;;15.00;100.00
39593;BME280;25286;48.870;9.084;2022-10-16T01:02:32;97879.81;;;14.99;100.00
39593;BME280;25286;48.870;9.084;2022-10-16T01:04:58;97888.38;;;14.97;100.00
39593;BME280;25286;48.870;9.084;2022-10-16T01:07:48;97886.72;;;14.96;100.00
39593;BME280;25286;48.870;9.084;2022-10-16T01:10:44;97889.75;;;14.90;100.00
39593;BME280;25286;48.870;9.084;2022-10-16T01:13:34;97883.94;;;14.91;100.00
39593;BME280;25286;48.870;9.084;2022-10-16T01:21:35;97880.38;;;14.91;100.00
39593;BME280;25286;48.870;9.084;2022-10-16T01:27:24;97876.47;;;14.97;100.00
39593;BME280;25286;48.870;9.084;2022-10-16T01:29:57;97883.94;;;15.02;100.00
39593;BME280;25286;48.870;9.084;2022-10-16T01:34:59;97876.22;;;15.04;100.00
39593;BME280;25286;48.870;9.084;2022-10-16T01:37:48;97880.34;;;15.06;100.00
39593;BME280;25286;48.870;9.084;2022-10-16T01:40:16;97882.56;;;15.04;100.00
39593;BME280;25286;48.870;9.084;2022-10-16T01:43:08;97870.41;;;15.10;100.00
39593;BME280;25286;48.870;9.084;2022-10-16T01:45:35;97860.19;;;15.06;100.00
39593;BME280;25286;48.870;9.084;2022-10-16T01:48:02;97882.59;;;14.99;100.00
39593;BME280;25286;48.870;9.084;2022-10-16T01:50:33;97873.19;;;14.95;100.00
39593;BME280;25286;48.870;9.084;2022-10-16T01:53:02;97864.59;;;14.96;100.00
39593;BME280;25286;48.870;9.084;2022-10-16T01:55:31;97862.66;;;14.97;100.00
39593;BME280;25286;48.870;9.084;2022-10-16T01:57:58;97858.53;;;14.94;100.00
39593;BME280;25286;48.870;9.084;2022-10-16T02:00:26;97860.19;;;14.95;100.00
39593;BME280;25286;48.870;9.084;2022-10-16T02:02:53;97867.66;;;14.95;100.00
39593;BME280;25286;48.870;9.084;2022-10-16T02:05:24;97864.59;;;15.02;100.00
39593;BME280;25286;48.870;9.084;2022-10-16T02:07:51;97873.19;;;15.00;100.00
39593;BME280;25286;48.870;9.084;2022-10-16T02:10:17;97865.72;;;14.95;100.00
39593;BME280;25286;48.870;9.084;2022-10-16T02:12:46;97867.38;;;15.02;100.00
39593;BME280;25286;48.870;9.084;2022-10-16T02:15:13;97871.81;;;15.08;100.00
39593;BME280;25286;48.870;9.084;2022-10-16T02:17:39;97867.94;;;15.09;100.00
39593;BME280;25286;48.870;9.084;2022-10-16T02:20:05;97866.81;;;15.05;100.00
39593;BME280;25286;48.870;9.084;2022-10-16T02:22:34;97864.59;;;15.02;100.00
39593;BME280;25286;48.870;9.084;2022-10-16T02:25:17;97870.94;;;15.02;100.00
39593;BME280;25286;48.870;9.084;2022-10-16T02:32:56;97877.59;;;14.91;100.00
39593;BME280;25286;48.870;9.084;2022-10-16T02:35:24;97872.91;;;14.91;100.00
39593;BME280;25286;48.870;9.084;2022-10-16T02:37:50;97869.31;;;14.91;100.00
39593;BME280;25286;48.870;9.084;2022-10-16T02:40:17;97872.91;;;14.91;100.00
39593;BME280;25286;48.870;9.084;2022-10-16T02:42:42;97873.72;;;14.97;100.00
39593;BME280;25286;48.870;9.084;2022-10-16T02:45:10;97880.66;;;14.94;100.00
39593;BME280;25286;48.870;9.084;2022-10-16T02:47:36;97881.75;;;14.98;100.00
39593;BME280;25286;48.870;9.084;2022-10-16T02:50:03;97883.66;;;14.93;100.00
39593;BME280;25286;48.870;9.084;2022-10-16T02:52:29;97879.25;;;14.87;100.00
39593;BME280;25286;48.870;9.084;2022-10-16T02:54:54;97877.59;;;14.81;100.00
39593;BME280;25286;48.870;9.084;2022-10-16T02:57:23;97886.44;;;14.78;100.00
39593;BME280;25286;48.870;9.084;2022-10-16T02:59:49;97891.13;;;14.82;100.00
39593;BME280;25286;48.870;9.084;2022-10-16T03:02:14;97886.13;;;14.84;100.00
39593;BME280;25286;48.870;9.084;2022-10-16T03:04:40;97892.25;;;14.81;100.00
39593;BME280;25286;48.870;9.084;2022-10-16T03:07:06;97892.53;;;14.85;100.00
39593;BME280;25286;48.870;9.084;2022-10-16T03:09:31;97888.66;;;14.76;100.00
39593;BME280;25286;48.870;9.084;2022-10-16T03:11:57;97894.19;;;14.81;100.00
39593;BME280;25286;48.870;9.084;2022-10-16T03:14:23;97892.25;;;14.81;100.00
39593;BME280;25286;48.870;9.084;2022-10-16T03:16:48;97895.28;;;14.85;100.00
39593;BME280;25286;48.870;9.084;2022-10-16T03:19:17;97896.66;;;14.82;100.00
39593;BME280;25286;48.870;9.084;2022-10-16T03:21:43;97887.81;;;14.80;100.00
39593;BME280;25286;48.870;9.084;2022-10-16T03:24:09;97889.47;;;14.81;100.00
39593;BME280;25286;48.870;9.084;2022-10-16T03:26:35;97898.00;;;14.59;100.00
39593;BME280;25286;48.870;9.084;2022-10-16T03:29:00;97895.53;;;14.68;100.00
39593;BME280;25286;48.870;9.084;2022-10-16T03:31:27;97899.13;;;14.73;100.00
39593;BME280;25286;48.870;9.084;2022-10-16T03:33:53;97895.53;;;14.73;100.00
39593;BME280;25286;48.870;9.084;2022-10-16T03:36:19;97892.22;;;14.71;100.00
39593;BME280;25286;48.870;9.084;2022-10-16T03:38:44;97898.28;;;14.73;100.00
39593;BME280;25286;48.870;9.084;2022-10-16T03:41:10;97894.13;;;14.70;100.00
39593;BME280;25286;48.870;9.084;2022-10-16T03:43:36;97896.66;;;14.72;100.00
39593;BME280;25286;48.870;9.084;2022-10-16T03:46:01;97888.91;;;14.69;100.00
39593;BME280;25286;48.870;9.084;2022-10-16T03:48:27;97893.59;;;14.68;100.00
39593;BME280;25286;48.870;9.084;2022-10-16T03:50:52;97893.59;;;14.68;100.00
39593;BME280;25286;48.870;9.084;2022-10-16T03:53:18;97892.78;;;14.68;100.00
39593;BME280;25286;48.870;9.084;2022-10-16T03:55:44;97888.34;;;14.67;100.00
39593;BME280;25286;48.870;9.084;2022-10-16T03:58:10;97891.38;;;14.70;100.00
39593;BME280;25286;48.870;9.084;2022-10-16T04:00:36;97892.50;;;14.74;100.00
39593;BME280;25286;48.870;9.084;2022-10-16T04:03:04;97898.00;;;14.80;100.00
39593;BME280;25286;48.870;9.084;2022-10-16T04:05:30;97896.13;;;14.80;100.00
39593;BME280;25286;48.870;9.084;2022-10-16T04:07:56;97898.88;;;14.80;100.00
39593;BME280;25286;48.870;9.084;2022-10-16T04:10:21;97895.53;;;14.73;100.00
39593;BME280;25286;48.870;9.084;2022-10-16T04:12:47;97893.88;;;14.72;100.00
39593;BME280;25286;48.870;9.084;2022-10-16T04:15:13;97898.00;;;14.74;100.00
39593;BME280;25286;48.870;9.084;2022-10-16T04:17:38;97896.38;;;14.73;100.00
39593;BME280;25286;48.870;9.084;2022-10-16T04:20:04;97892.50;;;14.74;100.00
39593;BME280;25286;48.870;9.084;2022-10-16T04:22:30;97888.06;;;14.79;100.00
39593;BME280;25286;48.870;9.084;2022-10-16T04:24:56;97892.78;;;14.78;100.00
39593;BME280;25286;48.870;9.084;2022-10-16T04:27:21;97894.19;;;14.81;100.00
39593;BME280;25286;48.870;9.084;2022-10-16T04:29:47;97892.78;;;14.78;100.00
39593;BME280;25286;48.870;9.084;2022-10-16T04:32:13;97896.38;;;14.79;100.00
39593;BME280;25286;48.870;9.084;2022-10-16T04:34:39;97903.00;;;14.78;100.00
39593;BME280;25286;48.870;9.084;2022-10-16T04:37:05;97904.38;;;14.75;100.00
39593;BME280;25286;48.870;9.084;2022-10-16T04:39:30;97913.22;;;14.72;100.00
39593;BME280;25286;48.870;9.084;2022-10-16T04:41:56;97898.84;;;14.70;100.00
39593;BME280;25286;48.870;9.084;2022-10-16T04:44:22;97913.47;;;14.70;100.00
39593;BME280;25286;48.870;9.084;2022-10-16T04:46:50;97913.22;;;14.67;100.00
39593;BME280;25286;48.870;9.084;2022-10-16T04:49:16;97918.44;;;14.68;100.00
39593;BME280;25286;48.870;9.084;2022-10-16T04:51:41;97925.34;;;14.66;100.00
39593;BME280;25286;48.870;9.084;2022-10-16T04:54:08;97928.66;;;14.63;100.00
39593;BME280;25286;48.870;9.084;2022-10-16T04:56:35;97931.13;;;14.59;100.00
39593;BME280;25286;48.870;9.084;2022-10-16T04:59:08;97933.06;;;14.64;100.00
39593;BME280;25286;48.870;9.084;2022-10-16T05:01:33;97933.63;;;14.66;100.00
39593;BME280;25286;48.870;9.084;2022-10-16T05:03:59;97932.53;;;14.62;100.00
39593;BME280;25286;48.870;9.084;2022-10-16T05:06:25;97943.59;;;14.67;100.00
39593;BME280;25286;48.870;9.084;2022-10-16T05:08:50;97938.06;;;14.72;100.00
39593;BME280;25286;48.870;9.084;2022-10-16T05:11:16;97941.38;;;14.74;100.00
39593;BME280;25286;48.870;9.084;2022-10-16T05:13:42;97932.81;;;14.70;100.00
39593;BME280;25286;48.870;9.084;2022-10-16T05:16:07;97929.50;;;14.68;100.00
39593;BME280;25286;48.870;9.084;2022-10-16T05:18:33;97929.78;;;14.62;100.00
39593;BME280;25286;48.870;9.084;2022-10-16T05:20:59;97923.97;;;14.58;100.00
39593;BME280;25286;48.870;9.084;2022-10-16T05:23:24;97926.72;;;14.58;100.00
39593;BME280;25286;48.870;9.084;2022-10-16T05:25:57;97930.84;;;14.56;100.00
39593;BME280;25286;48.870;9.084;2022-10-16T05:28:28;97930.31;;;14.54;100.00
39593;BME280;25286;48.870;9.084;2022-10-16T05:30:53;97928.66;;;14.53;100.00
39593;BME280;25286;48.870;9.084;2022-10-16T05:33:20;97938.56;;;14.48;100.00
39593;BME280;25286;48.870;9.084;2022-10-16T05:35:46;97945.13;;;14.47;100.00
39593;BME280;25286;48.870;9.084;2022-10-16T05:38:12;97941.34;;;14.48;100.00
39593;BME280;25286;48.870;9.084;2022-10-16T05:40:38;97939.13;;;14.51;100.00
39593;BME280;25286;48.870;9.084;2022-10-16T05:43:04;97937.75;;;14.53;100.00
39593;BME280;25286;48.870;9.084;2022-10-16T05:45:29;97941.34;;;14.59;100.00
39593;BME280;25286;48.870;9.084;2022-10-16T05:47:55;97940.25;;;14.60;100.00
39593;BME280;25286;48.870;9.084;2022-10-16T05:50:20;97942.72;;;14.61;100.00
39593;BME280;25286;48.870;9.084;2022-10-16T05:52:46;97951.88;;;14.62;100.00
39593;BME280;25286;48.870;9.084;2022-10-16T05:55:12;97956.28;;;14.63;100.00
39593;BME280;25286;48.870;9.084;2022-10-16T05:57:37;97961.22;;;14.56;100.00
39593;BME280;25286;48.870;9.084;2022-10-16T06:00:04;97974.47;;;14.54;100.00
39593;BME280;25286;48.870;9.084;2022-10-16T06:02:30;97970.06;;;14.58;100.00
39593;BME280;25286;48.870;9.084;2022-10-16T06:04:56;97971.16;;;14.57;100.00
39593;BME280;25286;48.870;9.084;2022-10-16T06:07:22;97967.31;;;14.53;100.00
39593;BME280;25286;48.870;9.084;2022-10-16T06:09:51;97952.69;;;14.57;100.00
39593;BME280;25286;48.870;9.084;2022-10-16T06:12:17;97959.03;;;14.63;100.00
39593;BME280;25286;48.870;9.084;2022-10-16T06:14:44;97957.63;;;14.60;100.00
39593;BME280;25286;48.870;9.084;2022-10-16T06:17:10;97956.00;;;14.64;100.00
39593;BME280;25286;48.870;9.084;2022-10-16T06:19:36;97973.16;;;14.66;100.00
39593;BME280;25286;48.870;9.084;2022-10-16T06:22:01;97976.16;;;14.65;100.00
39593;BME280;25286;48.870;9.084;2022-10-16T06:24:28;97974.50;;;14.59;100.00
39593;BME280;25286;48.870;9.084;2022-10-16T06:26:53;97961.22;;;14.61;100.00
39593;BME280;25286;48.870;9.084;2022-10-16T06:29:19;97971.47;;;14.65;100.00
39593;BME280;25286;48.870;9.084;2022-10-16T06:31:44;97976.16;;;14.70;100.00
39593;BME280;25286;48.870;9.084;2022-10-16T06:34:10;97978.41;;;14.73;100.00
39593;BME280;25286;48.870;9.084;2022-10-16T06:36:38;97973.41;;;14.75;100.00
39593;BME280;25286;48.870;9.084;2022-10-16T06:39:05;97973.44;;;14.80;100.00
39593;BME280;25286;48.870;9.084;2022-10-16T06:41:33;97987.25;;;14.80;100.00
39593;BME280;25286;48.870;9.084;2022-10-16T06:43:59;97998.06;;;14.92;100.00
39593;BME280;25286;48.870;9.084;2022-10-16T06:46:25;97995.28;;;14.92;100.00
39593;BME280;25286;48.870;9.084;2022-10-16T06:48:52;98001.94;;;14.96;100.00
39593;BME280;25286;48.870;9.084;2022-10-16T06:51:19;98005.22;;;14.98;100.00
39593;BME280;25286;48.870;9.084;2022-10-16T06:53:51;98003.34;;;14.98;100.00
39593;BME280;25286;48.870;9.084;2022-10-16T06:58:44;98008.59;;;15.10;100.00
39593;BME280;25286;48.870;9.084;2022-10-16T07:01:11;98014.13;;;15.15;100.00
39593;BME280;25286;48.870;9.084;2022-10-16T07:03:38;98016.63;;;15.17;100.00
39593;BME280;25286;48.870;9.084;2022-10-16T07:06:05;98027.69;;;15.22;100.00
39593;BME280;25286;48.870;9.084;2022-10-16T07:08:32;98030.44;;;15.22;100.00
39593;BME280;25286;48.870;9.084;2022-10-16T07:11:02;98032.09;;;15.23;100.00
39593;BME280;25286;48.870;9.084;2022-10-16T07:13:29;98043.16;;;15.28;100.00
39593;BME280;25286;48.870;9.084;2022-10-16T07:15:54;98042.63;;;15.26;100.00
39593;BME280;25286;48.870;9.084;2022-10-16T07:18:21;98047.28;;;15.25;100.00
39593;BME280;25286;48.870;9.084;2022-10-16T07:20:51;98047.59;;;15.34;100.00
39593;BME280;25286;48.870;9.084;2022-10-16T07:23:17;98043.75;;;15.35;100.00
39593;BME280;25286;48.870;9.084;2022-10-16T07:25:42;98050.34;;;15.34;100.00
39593;BME280;25286;48.870;9.084;2022-10-16T07:28:08;98059.75;;;15.33;100.00
39593;BME280;25286;48.870;9.084;2022-10-16T07:30:35;98058.66;;;15.34;100.00
39593;BME280;25286;48.870;9.084;2022-10-16T07:33:02;98057.81;;;15.34;100.00
39593;BME280;25286;48.870;9.084;2022-10-16T07:35:28;98063.94;;;15.36;100.00
39593;BME280;25286;48.870;9.084;2022-10-16T07:37:53;98058.66;;;15.34;100.00
39593;BME280;25286;48.870;9.084;2022-10-16T07:40:19;98061.69;;;15.38;100.00
39593;BME280;25286;48.870;9.084;2022-10-16T07:42:45;98055.34;;;15.37;100.00
39593;BME280;25286;48.870;9.084;2022-10-16T07:45:10;98057.56;;;15.35;100.00
39593;BME280;25286;48.870;9.084;2022-10-16T07:47:36;98058.09;;;15.37;100.00
39593;BME280;25286;48.870;9.084;2022-10-16T07:50:02;98070.56;;;15.45;100.00
39593;BME280;25286;48.870;9.084;2022-10-16T07:52:28;98068.34;;;15.52;100.00
39593;BME280;25286;48.870;9.084;2022-10-16T07:54:53;98068.63;;;15.56;100.00
39593;BME280;25286;48.870;9.084;2022-10-16T07:57:19;98069.22;;;15.63;100.00
39593;BME280;25286;48.870;9.084;2022-10-16T07:59:45;98086.38;;;15.70;100.00
39593;BME280;25286;48.870;9.084;2022-10-16T08:02:12;98075.06;;;15.77;100.00
39593;BME280;25286;48.870;9.084;2022-10-16T08:04:37;98073.94;;;15.83;100.00
39593;BME280;25286;48.870;9.084;2022-10-16T08:07:03;98082.81;;;15.90;100.00
39593;BME280;25286;48.870;9.084;2022-10-16T08:09:29;98080.28;;;15.98;100.00
39593;BME280;25286;48.870;9.084;2022-10-16T08:11:55;98078.59;;;16.08;100.00
39593;BME280;25286;48.870;9.084;2022-10-16T08:14:20;98078.88;;;16.16;100.00
39593;BME280;25286;48.870;9.084;2022-10-16T08:16:46;98086.91;;;16.23;100.00
39593;BME280;25286;48.870;9.084;2022-10-16T08:19:11;98080.22;;;16.44;100.00
39593;BME280;25286;48.870;9.084;2022-10-16T08:21:37;98078.78;;;16.57;100.00
39593;BME280;25286;48.870;9.084;2022-10-16T08:24:03;98099.00;;;16.58;100.00
39593;BME280;25286;48.870;9.084;2022-10-16T08:26:29;98105.94;;;16.60;100.00
39593;BME280;25286;48.870;9.084;2022-10-16T08:28:55;98101.78;;;16.58;100.00
39593;BME280;25286;48.870;9.084;2022-10-16T08:31:21;98099.00;;;16.63;100.00
39593;BME280;25286;48.870;9.084;2022-10-16T08:33:47;98102.59;;;16.58;100.00
39593;BME280;25286;48.870;9.084;2022-10-16T08:36:13;98110.09;;;16.58;100.00
39593;BME280;25286;48.870;9.084;2022-10-16T08:38:39;98103.16;;;16.65;100.00
39593;BME280;25286;48.870;9.084;2022-10-16T08:41:20;98102.63;;;16.63;100.00
39593;BME280;25286;48.870;9.084;2022-10-16T08:44:19;98108.41;;;16.67;100.00
39593;BME280;25286;48.870;9.084;2022-10-16T08:47:13;98109.81;;;16.74;100.00
39593;BME280;25286;48.870;9.084;2022-10-16T08:49:41;98106.50;;;16.72;100.00
39593;BME280;25286;48.870;9.084;2022-10-16T08:52:11;98103.44;;;16.74;100.00
39593;BME280;25286;48.870;9.084;2022-10-16T08:54:39;98107.31;;;16.78;100.00
39593;BME280;25286;48.870;9.084;2022-10-16T08:57:21;98106.16;;;16.84;100.00
39593;BME280;25286;48.870;9.084;2022-10-16T08:59:47;98100.34;;;16.81;100.00
39593;BME280;25286;48.870;9.084;2022-10-16T09:02:28;98107.00;;;16.85;100.00
39593;BME280;25286;48.870;9.084;2022-10-16T09:05:11;98104.50;;;16.83;100.00
39593;BME280;25286;48.870;9.084;2022-10-16T09:13:21;98117.78;;;16.96;100.00
39593;BME280;25286;48.870;9.084;2022-10-16T09:16:16;98114.69;;;17.03;100.00
39593;BME280;25286;48.870;9.084;2022-10-16T09:19:04;98106.34;;;17.08;100.00
39593;BME280;25286;48.870;9.084;2022-10-16T09:21:39;98110.50;;;17.11;100.00
39593;BME280;25286;48.870;9.084;2022-10-16T09:24:20;98132.13;;;17.14;100.00
39593;BME280;25286;48.870;9.084;2022-10-16T09:26:47;98132.63;;;17.21;100.00
39593;BME280;25286;48.870;9.084;2022-10-16T09:29:17;98128.44;;;17.28;100.00
39593;BME280;25286;48.870;9.084;2022-10-16T09:31:45;98134.25;;;17.32;100.00
39593;BME280;25286;48.870;9.084;2022-10-16T09:34:33;98132.56;;;17.31;100.00
39593;BME280;25286;48.870;9.084;2022-10-16T09:37:01;98136.44;;;17.35;99.53
39593;BME280;25286;48.870;9.084;2022-10-16T09:39:28;98142.53;;;17.37;98.44
39593;BME280;25286;48.870;9.084;2022-10-16T09:41:54;98142.22;;;17.44;97.81
39593;BME280;25286;48.870;9.084;2022-10-16T09:44:28;98141.34;;;17.48;98.18
39593;BME280;25286;48.870;9.084;2022-10-16T09:47:21;98144.09;;;17.53;97.33
39593;BME280;25286;48.870;9.084;2022-10-16T09:50:20;98139.56;;;17.68;96.40
39593;BME280;25286;48.870;9.084;2022-10-16T09:52:46;98149.50;;;17.84;95.43
39593;BME280;25286;48.870;9.084;2022-10-16T09:55:16;98154.66;;;17.96;95.60
39593;BME280;25286;48.870;9.084;2022-10-16T09:57:52;98159.94;;;17.97;96.56
39593;BME280;25286;48.870;9.084;2022-10-16T10:00:19;98162.41;;;17.99;94.76
39593;BME280;25286;48.870;9.084;2022-10-16T10:02:45;98169.94;;;17.98;94.15
39593;BME280;25286;48.870;9.084;2022-10-16T10:05:21;98161.59;;;17.98;92.58
39593;BME280;25286;48.870;9.084;2022-10-16T10:07:59;98167.94;;;18.04;93.44
39593;BME280;25286;48.870;9.084;2022-10-16T10:10:30;98172.34;;;18.10;93.55
39593;BME280;25286;48.870;9.084;2022-10-16T10:12:59;98165.88;;;18.20;92.58
39593;BME280;25286;48.870;9.084;2022-10-16T10:15:25;98170.00;;;18.22;92.51
39593;BME280;25286;48.870;9.084;2022-10-16T10:17:54;98179.09;;;18.33;92.28
39593;BME280;25286;48.870;9.084;2022-10-16T10:20:26;98171.59;;;18.34;92.77
39593;BME280;25286;48.870;9.084;2022-10-16T10:22:53;98180.97;;;18.43;92.92
39593;BME280;25286;48.870;9.084;2022-10-16T10:36:37;98181.69;;;18.53;89.09
39593;BME280;25286;48.870;9.084;2022-10-16T10:39:17;98190.22;;;18.62;89.53
39593;BME280;25286;48.870;9.084;2022-10-16T10:42:08;98179.66;;;18.69;90.09
39593;BME280;25286;48.870;9.084;2022-10-16T10:44:53;98186.53;;;18.72;88.92
39593;BME280;25286;48.870;9.084;2022-10-16T10:47:40;98181.19;;;18.81;89.91
39593;BME280;25286;48.870;9.084;2022-10-16T10:50:31;98180.25;;;18.90;88.92
39593;BME280;25286;48.870;9.084;2022-10-16T11:06:17;98174.13;;;19.36;87.51
39593;BME280;25286;48.870;9.084;2022-10-16T11:08:48;98183.28;;;19.61;86.97
39593;BME280;25286;48.870;9.084;2022-10-16T11:16:43;98181.16;;;19.52;82.31
39593;BME280;25286;48.870;9.084;2022-10-16T11:19:22;98182.22;;;19.57;82.77
39593;BME280;25286;48.870;9.084;2022-10-16T11:24:53;98171.16;;;19.75;84.24
39593;BME280;25286;48.870;9.084;2022-10-16T11:27:33;98183.03;;;19.81;85.14
39593;BME280;25286;48.870;9.084;2022-10-16T11:30:03;98170.69;;;19.87;85.56
39593;BME280;25286;48.870;9.084;2022-10-16T11:32:37;98166.81;;;20.02;84.08
39593;BME280;25286;48.870;9.084;2022-10-16T11:35:17;98167.06;;;20.05;83.37
39593;BME280;25286;48.870;9.084;2022-10-16T11:37:45;98173.78;;;20.37;81.77
39593;BME280;25286;48.870;9.084;2022-10-16T11:40:31;98168.31;;;20.65;81.94
39593;BME280;25286;48.870;9.084;2022-10-16T11:43:12;98175.78;;;20.83;80.82
39593;BME280;25286;48.870;9.084;2022-10-16T11:45:43;98173.34;;;20.95;79.38
39593;BME280;25286;48.870;9.084;2022-10-16T11:48:59;98171.34;;;20.68;77.69
39593;BME280;25286;48.870;9.084;2022-10-16T11:56:20;98170.13;;;20.88;75.59
39593;BME280;25286;48.870;9.084;2022-10-16T11:59:01;98168.69;;;21.04;74.43
39593;BME280;25286;48.870;9.084;2022-10-16T12:01:37;98172.41;;;21.00;74.12
39593;BME280;25286;48.870;9.084;2022-10-16T12:04:21;98170.66;;;21.04;74.18
39593;BME280;25286;48.870;9.084;2022-10-16T12:06:55;98166.13;;;20.94;73.75
39593;BME280;25286;48.870;9.084;2022-10-16T12:09:27;98159.06;;;20.97;75.08
39593;BME280;25286;48.870;9.084;2022-10-16T12:11:53;98161.97;;;21.05;75.19
39593;BME280;25286;48.870;9.084;2022-10-16T12:16:56;98156.28;;;20.97;75.31
39593;BME280;25286;48.870;9.084;2022-10-16T12:19:24;98155.13;;;20.98;76.00
39593;BME280;25286;48.870;9.084;2022-10-16T12:21:51;98156.97;;;20.75;75.38
39593;BME280;25286;48.870;9.084;2022-10-16T12:26:47;98160.31;;;21.04;74.90
39593;BME280;25286;48.870;9.084;2022-10-16T12:31:52;98151.03;;;21.50;73.06
39593;BME280;25286;48.870;9.084;2022-10-16T12:36:54;98149.81;;;21.79;71.32
39593;BME280;25286;48.870;9.084;2022-10-16T12:39:24;98152.28;;;21.80;70.46
39593;BME280;25286;48.870;9.084;2022-10-16T12:42:04;98157.63;;;22.04;69.00
39593;BME280;25286;48.870;9.084;2022-10-16T12:44:34;98153.78;;;24.56;61.96
39593;BME280;25286;48.870;9.084;2022-10-16T12:47:01;98155.00;;;27.57;52.13
39593;BME280;25286;48.870;9.084;2022-10-16T12:51:53;98158.88;;;24.63;57.59
39593;BME280;25286;48.870;9.084;2022-10-16T12:54:30;98163.94;;;24.87;59.48
39593;BME280;25286;48.870;9.084;2022-10-16T12:59:49;98160.81;;;29.09;47.69
39593;BME280;25286;48.870;9.084;2022-10-16T13:05:39;98160.41;;;25.16;55.62
39593;BME280;25286;48.870;9.084;2022-10-16T13:19:20;98165.88;;;22.77;66.01
39593;BME280;25286;48.870;9.084;2022-10-16T13:28:05;98163.34;;;21.49;73.03
39593;BME280;25286;48.870;9.084;2022-10-16T13:30:44;98166.22;;;21.30;74.38
39593;BME280;25286;48.870;9.084;2022-10-16T13:33:19;98163.50;;;21.25;75.17
39593;BME280;25286;48.870;9.084;2022-10-16T13:35:54;98176.25;;;21.18;75.61
39593;BME280;25286;48.870;9.084;2022-10-16T13:38:22;98169.22;;;21.20;75.60
39593;BME280;25286;48.870;9.084;2022-10-16T13:40:53;98180.19;;;21.03;76.95
39593;BME280;25286;48.870;9.084;2022-10-16T13:43:37;98178.47;;;21.85;74.02
39593;BME280;25286;48.870;9.084;2022-10-16T13:46:05;98176.22;;;22.76;68.40
39593;BME280;25286;48.870;9.084;2022-10-16T13:48:33;98175.66;;;23.19;67.38
39593;BME280;25286;48.870;9.084;2022-10-16T13:51:04;98179.63;;;22.65;68.72
39593;BME280;25286;48.870;9.084;2022-10-16T13:53:32;98167.03;;;22.31;70.46
39593;BME280;25286;48.870;9.084;2022-10-16T13:55:57;98175.25;;;21.91;71.75
39593;BME280;25286;48.870;9.084;2022-10-16T13:58:25;98167.72;;;21.78;73.33
39593;BME280;25286;48.870;9.084;2022-10-16T14:00:56;98165.09;;;21.45;73.32
39593;BME280;25286;48.870;9.084;2022-10-16T14:03:23;98173.69;;;21.35;74.55
39593;BME280;25286;48.870;9.084;2022-10-16T14:05:51;98167.56;;;21.19;74.68
39593;BME280;25286;48.870;9.084;2022-10-16T14:08:17;98164.25;;;20.90;76.76
39593;BME280;25286;48.870;9.084;2022-10-16T14:10:47;98172.41;;;20.86;77.15
39593;BME280;25286;48.870;9.084;2022-10-16T14:13:17;98178.59;;;20.97;77.03
39593;BME280;25286;48.870;9.084;2022-10-16T14:15:46;98179.31;;;21.02;76.08
39593;BME280;25286;48.870;9.084;2022-10-16T14:18:17;98176.50;;;20.89;77.19
39593;BME280;25286;48.870;9.084;2022-10-16T14:20:44;98179.94;;;20.86;78.23
39593;BME280;25286;48.870;9.084;2022-10-16T14:25:48;98173.94;;;20.78;78.90
39593;BME280;25286;48.870;9.084;2022-10-16T14:28:22;98182.81;;;20.67;79.76
39593;BME280;25286;48.870;9.084;2022-10-16T14:30:55;98190.22;;;20.58;80.42
39593;BME280;25286;48.870;9.084;2022-10-16T14:33:32;98186.38;;;20.53;80.73
39593;BME280;25286;48.870;9.084;2022-10-16T14:36:14;98183.72;;;20.43;80.50
39593;BME280;25286;48.870;9.084;2022-10-16T14:38:48;98186.47;;;20.48;80.82
39593;BME280;25286;48.870;9.084;2022-10-16T14:41:14;98191.47;;;20.46;80.65
39593;BME280;25286;48.870;9.084;2022-10-16T14:43:41;98194.56;;;20.45;80.60
39593;BME280;25286;48.870;9.084;2022-10-16T14:46:17;98185.91;;;20.46;81.05